Bancroft, Wisconsin
Current Conditions -  °F | °C
As of 7:54 AM on Sunday 25 Jan 2015 (Local Time) from KISW Reporting Station
Overcast Overcast  
Wind Chill: 10°   Ceiling: 2200
Heat Index: 20°   Visibility: 10mi
Dew Point: 10°   Wind: 8mph
Humidity: 65%   Direction: 80°E
Pressure: 29.92"   Gusts: NA
Location:  44.31°N, 89.51°W
Report Text: KISW 251354Z AUTO 08007KT 10SM BKN022 OVC050 M07/M12 A2992 RMK AO2 SLP148 T10671122
Loading
Personal Weather Stations






























Interactive Weather Map New forecast layout! Learn more

10-Day Weather Forecast

Advertisements
Track Severe Weather on mobile